createdAt,value
2017-09-03T00:00:38.695Z,16.18
2017-09-03T00:03:08.070Z,16.03
2017-09-03T00:05:36.433Z,16.15
2017-09-03T00:08:05.671Z,16.34
2017-09-03T00:10:34.699Z,16.38
2017-09-03T00:13:03.068Z,16.34
2017-09-03T00:15:31.432Z,16.39
2017-09-03T00:18:00.336Z,16.50
2017-09-03T00:20:30.226Z,16.66
2017-09-03T00:22:58.834Z,16.82
2017-09-03T00:25:28.304Z,16.74
2017-09-03T00:27:57.137Z,16.79
2017-09-03T00:30:25.568Z,16.91
2017-09-03T00:32:54.528Z,16.74
2017-09-03T00:35:22.876Z,16.81
2017-09-03T00:37:51.234Z,16.84
2017-09-03T00:40:20.180Z,16.93
2017-09-03T00:42:48.552Z,16.94
2017-09-03T00:45:16.926Z,16.97
2017-09-03T00:47:45.585Z,17.02
2017-09-03T00:50:14.169Z,17.01
2017-09-03T00:52:43.160Z,16.99
2017-09-03T00:55:13.422Z,16.95
2017-09-03T00:57:41.841Z,16.93
2017-09-03T01:00:10.532Z,16.92
2017-09-03T01:02:39.219Z,16.99
2017-09-03T01:05:07.557Z,17.11
2017-09-03T01:07:35.914Z,17.15
2017-09-03T01:10:04.578Z,17.21
2017-09-03T01:12:33.864Z,17.21
2017-09-03T01:15:03.150Z,17.17
2017-09-03T01:17:32.332Z,17.14
2017-09-03T01:20:01.595Z,17.19
2017-09-03T01:22:30.747Z,17.19
2017-09-03T01:24:59.410Z,17.20
2017-09-03T01:27:27.763Z,16.99
2017-09-03T01:29:56.119Z,16.99
2017-09-03T01:32:25.059Z,16.90
2017-09-03T01:34:53.411Z,16.85
2017-09-03T01:37:22.756Z,16.89
2017-09-03T01:39:51.720Z,16.92
2017-09-03T01:42:20.083Z,16.88
2017-09-03T01:44:48.425Z,16.82
2017-09-03T01:47:17.549Z,16.84
2017-09-03T01:49:45.935Z,16.75
2017-09-03T01:52:15.050Z,16.60
2017-09-03T01:54:44.434Z,16.52
2017-09-03T01:57:12.782Z,16.32
2017-09-03T01:59:41.135Z,16.35
2017-09-03T02:02:10.862Z,16.30
2017-09-03T02:04:39.911Z,16.28
2017-09-03T02:07:09.069Z,16.24
2017-09-03T02:09:37.817Z,16.24
2017-09-03T02:12:06.193Z,16.23
2017-09-03T02:14:34.536Z,16.17
2017-09-03T02:17:04.022Z,16.06
2017-09-03T02:19:32.379Z,15.94
2017-09-03T02:22:00.729Z,15.81
2017-09-03T02:24:29.411Z,15.87
2017-09-03T02:26:57.770Z,15.80
2017-09-03T02:29:26.148Z,15.87
2017-09-03T02:31:54.775Z,15.92
2017-09-03T02:34:23.576Z,15.78
2017-09-03T02:36:52.865Z,15.87
2017-09-03T02:39:21.645Z,15.80
2017-09-03T02:41:50.764Z,15.70
2017-09-03T02:44:19.437Z,15.87
2017-09-03T02:46:49.141Z,15.69
2017-09-03T02:49:17.494Z,15.59
2017-09-03T02:51:45.866Z,15.65
2017-09-03T02:54:16.192Z,15.43
2017-09-03T02:56:44.534Z,15.18
2017-09-03T02:59:12.894Z,14.92
2017-09-03T03:01:42.604Z,14.94
2017-09-03T03:04:10.953Z,14.77
2017-09-03T03:06:39.586Z,14.83
2017-09-03T03:09:08.366Z,14.78
2017-09-03T03:11:36.727Z,14.74
2017-09-03T03:14:06.842Z,14.57
2017-09-03T03:16:35.628Z,14.54
2017-09-03T03:19:04.013Z,14.74
2017-09-03T03:21:32.390Z,14.74
2017-09-03T03:24:01.966Z,14.80
2017-09-03T03:26:30.341Z,14.79
2017-09-03T03:28:58.724Z,14.82
2017-09-03T03:31:27.556Z,14.59
2017-09-03T03:33:56.742Z,14.58
2017-09-03T03:36:25.099Z,14.63
2017-09-03T03:38:53.781Z,14.73
2017-09-03T03:41:22.163Z,14.75
2017-09-03T03:43:50.581Z,14.75
2017-09-03T03:46:21.280Z,14.85
2017-09-03T03:48:49.665Z,14.80
2017-09-03T03:51:18.821Z,14.80
2017-09-03T03:53:47.873Z,14.82
2017-09-03T03:56:16.250Z,14.84
2017-09-03T03:58:44.602Z,14.91
2017-09-03T04:01:13.261Z,14.85
2017-09-03T04:03:41.624Z,14.80
2017-09-03T04:06:10.356Z,14.79
2017-09-03T04:08:39.034Z,14.74
2017-09-03T04:11:07.377Z,14.87
2017-09-03T04:13:35.729Z,14.70
2017-09-03T04:16:04.598Z,14.76
2017-09-03T04:18:33.649Z,14.64
2017-09-03T04:21:02.260Z,14.63
2017-09-03T04:23:31.789Z,14.51
2017-09-03T04:26:00.142Z,14.60
2017-09-03T04:28:28.500Z,14.67
2017-09-03T04:30:57.341Z,14.69
2017-09-03T04:33:26.503Z,14.68
2017-09-03T04:35:54.854Z,14.61
2017-09-03T04:38:23.886Z,14.62
2017-09-03T04:40:52.739Z,14.53
2017-09-03T04:43:21.833Z,14.58
2017-09-03T04:45:50.815Z,14.44
2017-09-03T04:48:19.184Z,14.33
2017-09-03T04:50:48.015Z,14.37
2017-09-03T04:53:16.657Z,14.33
2017-09-03T04:55:45.554Z,14.42
2017-09-03T04:58:13.888Z,14.31
2017-09-03T05:00:43.133Z,14.16
2017-09-03T05:03:12.175Z,14.09
2017-09-03T05:05:40.558Z,13.93
2017-09-03T05:08:09.418Z,13.93
2017-09-03T05:10:37.799Z,14.10
2017-09-03T05:13:06.179Z,14.36
2017-09-03T05:15:34.858Z,14.59
2017-09-03T05:18:03.987Z,14.78
2017-09-03T05:20:34.676Z,14.72
2017-09-03T05:23:03.618Z,14.89
2017-09-03T05:25:33.449Z,15.03
2017-09-03T05:28:01.799Z,15.03
2017-09-03T05:30:30.623Z,14.96
2017-09-03T05:32:58.981Z,15.00
2017-09-03T05:35:27.617Z,14.91
2017-09-03T05:37:56.472Z,14.86
2017-09-03T05:40:24.851Z,14.87
2017-09-03T05:42:54.254Z,14.98
2017-09-03T05:45:23.318Z,14.84
2017-09-03T05:47:51.978Z,15.08
2017-09-03T05:50:21.167Z,15.24
2017-09-03T05:52:50.257Z,15.38
2017-09-03T05:55:18.625Z,15.49
2017-09-03T05:57:47.817Z,15.44
2017-09-03T06:00:16.699Z,15.44
2017-09-03T06:02:45.108Z,15.57
2017-09-03T06:05:13.699Z,15.61
2017-09-03T06:07:42.381Z,15.71
2017-09-03T06:10:10.756Z,15.88
2017-09-03T06:12:39.130Z,16.24
2017-09-03T06:15:08.469Z,16.40
2017-09-03T06:17:36.900Z,16.42
2017-09-03T06:20:05.307Z,16.57
2017-09-03T06:22:34.272Z,16.94
2017-09-03T06:25:02.652Z,17.06
2017-09-03T06:27:31.037Z,17.17
2017-09-03T06:30:00.146Z,17.24
2017-09-03T06:32:29.418Z,16.88
2017-09-03T06:34:58.440Z,16.91
2017-09-03T06:37:27.546Z,16.80
2017-09-03T06:39:55.935Z,17.20
2017-09-03T06:42:24.299Z,17.42
2017-09-03T06:44:52.964Z,17.81
2017-09-03T06:47:21.349Z,17.96
2017-09-03T06:49:49.721Z,18.14
2017-09-03T06:52:18.739Z,18.45
2017-09-03T06:54:47.117Z,18.24
2017-09-03T06:57:15.488Z,18.21
2017-09-03T06:59:44.962Z,18.27
2017-09-03T07:02:13.330Z,18.49
2017-09-03T07:04:41.732Z,18.89
2017-09-03T07:07:11.266Z,19.03
2017-09-03T07:09:40.600Z,18.69
2017-09-03T07:12:08.979Z,18.83
2017-09-03T07:14:37.728Z,18.80
2017-09-03T07:17:06.492Z,18.62
2017-09-03T07:19:36.115Z,18.39
2017-09-03T07:22:04.807Z,18.70
2017-09-03T07:24:34.927Z,18.71
2017-09-03T07:27:03.281Z,18.37
2017-09-03T07:29:32.083Z,18.03
2017-09-03T07:32:00.495Z,18.87
2017-09-03T07:34:28.872Z,19.40
2017-09-03T07:36:59.235Z,19.21
2017-09-03T07:39:27.700Z,19.57
2017-09-03T07:41:56.182Z,19.99
2017-09-03T07:44:24.944Z,20.02
2017-09-03T07:46:54.016Z,19.98
2017-09-03T07:49:22.395Z,20.01
2017-09-03T07:51:51.207Z,20.69
2017-09-03T07:54:19.590Z,21.74
2017-09-03T07:56:48.011Z,22.84
2017-09-03T07:59:16.872Z,23.68
2017-09-03T08:01:45.252Z,23.87
2017-09-03T08:04:14.586Z,24.73
2017-09-03T08:06:43.248Z,25.69
2017-09-03T08:09:13.750Z,26.15
2017-09-03T08:11:42.176Z,25.67
2017-09-03T08:14:10.816Z,26.91
2017-09-03T08:16:39.303Z,27.09
2017-09-03T08:19:07.919Z,26.82
2017-09-03T08:21:36.789Z,27.64
2017-09-03T08:24:06.088Z,27.95
2017-09-03T08:29:31.107Z,28.75
2017-09-03T08:31:59.653Z,29.77
2017-09-03T08:34:28.669Z,30.59
2017-09-03T08:37:00.110Z,31.01
2017-09-03T08:39:28.764Z,30.49
2017-09-03T08:41:57.151Z,30.18
2017-09-03T08:44:26.059Z,30.83
2017-09-03T08:46:55.389Z,30.41
2017-09-03T08:49:23.820Z,31.60
2017-09-03T08:51:54.199Z,32.24
2017-09-03T08:54:22.660Z,32.59
2017-09-03T08:56:51.060Z,33.07
2017-09-03T08:59:20.159Z,33.50
2017-09-03T09:01:49.397Z,33.68
2017-09-03T09:04:18.668Z,34.21
2017-09-03T09:06:47.310Z,35.40
2017-09-03T09:09:15.795Z,36.12
2017-09-03T09:11:44.309Z,36.37
2017-09-03T09:14:13.435Z,36.00
2017-09-03T09:16:41.907Z,36.15
2017-09-03T09:19:10.324Z,36.55
2017-09-03T09:21:39.450Z,36.55
2017-09-03T09:24:07.849Z,36.43
2017-09-03T09:26:36.598Z,37.46
2017-09-03T09:29:05.483Z,36.77
2017-09-03T09:31:33.805Z,34.04
2017-09-03T09:34:02.550Z,34.02
2017-09-03T09:36:32.781Z,35.16
2017-09-03T09:39:01.420Z,36.50
2017-09-03T09:41:30.890Z,38.06
2017-09-03T09:43:59.767Z,39.15
2017-09-03T09:46:28.236Z,38.77
2017-09-03T09:48:56.727Z,35.39
2017-09-03T09:51:25.945Z,31.19
2017-09-03T09:53:55.294Z,29.58
2017-09-03T09:56:28.680Z,28.96
2017-09-03T09:58:57.059Z,29.23
2017-09-03T10:01:25.423Z,28.83
2017-09-03T10:03:54.260Z,30.44
2017-09-03T10:06:22.715Z,33.21
2017-09-03T10:08:52.801Z,32.32
2017-09-03T10:11:22.266Z,31.61
2017-09-03T10:13:50.659Z,34.01
2017-09-03T10:16:19.982Z,35.54
2017-09-03T10:18:48.794Z,37.25
2017-09-03T10:21:17.214Z,38.04
2017-09-03T10:23:45.670Z,38.48
2017-09-03T10:26:14.706Z,39.58
2017-09-03T10:28:43.239Z,40.19
2017-09-03T10:31:12.084Z,40.43
2017-09-03T10:33:42.186Z,40.64
2017-09-03T10:36:10.654Z,41.72
2017-09-03T10:38:39.077Z,41.43
2017-09-03T10:41:08.732Z,41.22
2017-09-03T10:43:38.159Z,41.22
2017-09-03T10:46:06.673Z,41.15
2017-09-03T10:48:35.760Z,41.05
2017-09-03T10:51:05.096Z,41.70
2017-09-03T10:53:33.751Z,41.13
2017-09-03T10:56:03.177Z,41.23
2017-09-03T10:58:31.636Z,39.53
2017-09-03T11:01:00.106Z,40.22
2017-09-03T11:03:28.848Z,40.29
2017-09-03T11:05:57.275Z,41.63
2017-09-03T11:08:26.248Z,42.47
2017-09-03T11:10:55.744Z,41.86
2017-09-03T11:13:24.237Z,40.62
2017-09-03T11:15:52.678Z,40.70
2017-09-03T11:18:22.041Z,40.98
2017-09-03T11:20:50.478Z,41.30
2017-09-03T11:23:19.831Z,40.68
2017-09-03T11:25:48.820Z,41.40
2017-09-03T11:28:17.263Z,41.82
2017-09-03T11:30:47.529Z,42.00
2017-09-03T11:33:16.450Z,42.07
2017-09-03T11:35:44.924Z,42.15
2017-09-03T11:38:13.792Z,42.26
2017-09-03T11:40:42.707Z,40.90
2017-09-03T11:43:11.134Z,40.75
2017-09-03T11:45:39.534Z,39.03
2017-09-03T11:48:08.218Z,39.98
2017-09-03T11:50:36.775Z,38.74
2017-09-03T11:53:06.859Z,39.05
2017-09-03T11:55:37.058Z,40.53
2017-09-03T11:58:05.701Z,41.71
2017-09-03T12:00:34.924Z,41.02
2017-09-03T12:03:04.197Z,40.69
2017-09-03T12:05:33.474Z,41.67
2017-09-03T12:08:02.769Z,40.83
2017-09-03T12:10:32.199Z,38.16
2017-09-03T12:13:00.703Z,38.98
2017-09-03T12:15:29.388Z,39.93
2017-09-03T12:17:59.226Z,39.95
2017-09-03T12:20:27.665Z,39.53
2017-09-03T12:22:56.836Z,39.32
2017-09-03T12:25:25.495Z,39.69
2017-09-03T12:27:54.765Z,40.43
2017-09-03T12:30:23.926Z,40.03
2017-09-03T12:32:52.913Z,39.99
2017-09-03T12:35:21.522Z,40.15
2017-09-03T12:37:49.886Z,40.51
2017-09-03T12:40:18.836Z,39.65
2017-09-03T12:42:47.221Z,39.67
2017-09-03T12:45:16.430Z,38.12
2017-09-03T12:47:45.400Z,38.73
2017-09-03T12:50:13.875Z,35.84
2017-09-03T12:52:42.247Z,36.15
2017-09-03T12:55:11.056Z,36.52
2017-09-03T12:57:40.986Z,35.19
2017-09-03T13:00:10.360Z,33.40
2017-09-03T13:02:39.195Z,32.05
2017-09-03T13:05:07.591Z,31.03
2017-09-03T13:07:36.548Z,30.03
2017-09-03T13:10:05.253Z,29.54
2017-09-03T13:12:33.736Z,29.29
2017-09-03T13:15:02.144Z,30.08
2017-09-03T13:17:30.833Z,30.20
2017-09-03T13:20:00.031Z,29.54
2017-09-03T13:22:29.273Z,28.83
2017-09-03T13:24:58.395Z,28.53
2017-09-03T13:27:27.839Z,28.67
2017-09-03T13:29:56.175Z,29.53
2017-09-03T13:32:25.228Z,30.43
2017-09-03T13:34:53.604Z,30.47
2017-09-03T13:37:21.985Z,31.68
2017-09-03T13:39:51.009Z,31.76
2017-09-03T13:42:20.208Z,32.43
2017-09-03T13:44:48.563Z,32.48
2017-09-03T13:47:17.354Z,32.50
2017-09-03T13:49:47.385Z,32.46
2017-09-03T13:52:16.514Z,32.33
2017-09-03T13:54:45.192Z,32.34
2017-09-03T13:57:14.740Z,31.87
2017-09-03T13:59:43.105Z,30.74
2017-09-03T14:02:11.880Z,30.67
2017-09-03T14:04:40.284Z,30.80
2017-09-03T14:07:08.658Z,30.84
2017-09-03T14:09:37.397Z,29.86
2017-09-03T14:12:05.792Z,29.39
2017-09-03T14:14:34.206Z,29.49
2017-09-03T14:17:03.043Z,29.84
2017-09-03T14:19:31.425Z,29.82
2017-09-03T14:21:59.795Z,29.81
2017-09-03T14:24:28.715Z,29.99
2017-09-03T14:26:57.173Z,29.68
2017-09-03T14:29:26.257Z,29.52
2017-09-03T14:31:56.128Z,29.35
2017-09-03T14:34:24.576Z,29.29
2017-09-03T14:36:52.955Z,28.94
2017-09-03T14:39:21.805Z,28.79
2017-09-03T14:41:50.842Z,28.29
2017-09-03T14:44:19.329Z,28.05
2017-09-03T14:46:48.926Z,28.37
2017-09-03T14:49:17.303Z,28.26
2017-09-03T14:51:45.721Z,28.27
2017-09-03T14:54:15.631Z,28.47
2017-09-03T14:56:44.544Z,28.80
2017-09-03T14:59:12.970Z,28.69
2017-09-03T15:01:41.688Z,28.45
2017-09-03T15:04:10.201Z,28.48
2017-09-03T15:06:39.310Z,28.26
2017-09-03T15:09:08.942Z,28.30
2017-09-03T15:11:37.479Z,28.13
2017-09-03T15:14:05.963Z,27.98
2017-09-03T15:16:36.405Z,27.77
2017-09-03T15:19:04.863Z,27.78
2017-09-03T15:21:33.379Z,27.74
2017-09-03T15:24:02.931Z,27.87
2017-09-03T15:26:31.389Z,27.92
2017-09-03T15:28:59.759Z,27.79
2017-09-03T15:31:28.577Z,27.50
2017-09-03T15:33:56.997Z,27.21
2017-09-03T15:36:25.743Z,27.32
2017-09-03T15:38:54.734Z,27.23
2017-09-03T15:41:24.617Z,27.30
2017-09-03T15:43:53.020Z,27.11
2017-09-03T15:46:22.136Z,27.19
2017-09-03T15:48:50.500Z,27.18
2017-09-03T15:51:18.965Z,27.16
2017-09-03T15:53:48.577Z,26.83
2017-09-03T15:56:17.029Z,26.89
2017-09-03T15:58:45.611Z,26.76
2017-09-03T16:01:14.411Z,26.78
2017-09-03T16:03:43.609Z,26.54
2017-09-03T16:06:11.949Z,26.55
2017-09-03T16:08:41.250Z,26.46
2017-09-03T16:11:10.175Z,26.34
2017-09-03T16:13:38.868Z,26.17
2017-09-03T16:16:09.147Z,26.08
2017-09-03T16:18:37.504Z,26.06
2017-09-03T16:21:05.887Z,25.83
2017-09-03T16:23:34.957Z,25.74
2017-09-03T16:26:03.334Z,25.84
2017-09-03T16:28:32.576Z,25.59
2017-09-03T16:31:01.318Z,25.35
2017-09-03T16:33:30.974Z,25.39
2017-09-03T16:35:59.378Z,25.12
2017-09-03T16:38:29.858Z,25.20
2017-09-03T16:40:59.589Z,25.08
2017-09-03T16:43:28.906Z,25.02
2017-09-03T16:45:57.893Z,24.91
2017-09-03T16:48:26.247Z,25.01
2017-09-03T16:50:55.115Z,25.02
2017-09-03T16:53:24.774Z,24.96
2017-09-03T16:55:53.939Z,24.91
2017-09-03T16:58:22.454Z,24.69
2017-09-03T17:00:51.315Z,24.89
2017-09-03T17:03:20.375Z,24.79
2017-09-03T17:05:49.051Z,24.71
2017-09-03T17:08:19.410Z,24.54
2017-09-03T17:10:47.794Z,24.43
2017-09-03T17:13:16.235Z,24.32
2017-09-03T17:15:45.053Z,24.24
2017-09-03T17:18:13.767Z,24.17
2017-09-03T17:20:42.187Z,24.28
2017-09-03T17:23:10.822Z,24.06
2017-09-03T17:25:40.637Z,24.00
2017-09-03T17:28:09.050Z,23.91
2017-09-03T17:33:47.059Z,23.79
2017-09-03T17:36:16.337Z,23.58
2017-09-03T17:38:50.212Z,23.69
2017-09-03T17:41:32.670Z,23.50
2017-09-03T17:44:03.903Z,23.47
2017-09-03T17:46:35.788Z,23.48
2017-09-03T17:49:04.184Z,23.26
2017-09-03T17:51:33.723Z,23.25
2017-09-03T17:54:02.468Z,23.11
2017-09-03T17:56:31.487Z,22.96
2017-09-03T17:58:59.865Z,22.91
2017-09-03T18:01:30.327Z,22.79
2017-09-03T18:03:58.737Z,22.83
2017-09-03T18:06:27.139Z,22.78
2017-09-03T18:08:56.274Z,22.73
2017-09-03T18:11:26.242Z,22.61
2017-09-03T18:13:56.279Z,22.54
2017-09-03T18:16:25.783Z,22.33
2017-09-03T18:18:54.878Z,22.38
2017-09-03T18:21:23.240Z,22.08
2017-09-03T18:23:52.528Z,21.89
2017-09-03T18:26:22.939Z,21.96
2017-09-03T18:28:51.306Z,21.80
2017-09-03T18:31:20.720Z,21.69
2017-09-03T18:33:49.150Z,21.60
2017-09-03T18:36:19.899Z,21.49
2017-09-03T18:38:52.496Z,21.17
2017-09-03T18:41:21.539Z,21.19
2017-09-03T18:43:50.759Z,20.87
2017-09-03T18:46:20.997Z,21.00
2017-09-03T18:48:50.658Z,20.79
2017-09-03T18:51:19.019Z,20.81
2017-09-03T19:07:23.940Z,20.34
2017-09-03T19:09:52.304Z,20.17
2017-09-03T19:12:21.449Z,19.98
2017-09-03T19:14:50.424Z,19.97
2017-09-03T19:17:19.026Z,19.94
2017-09-03T19:19:47.404Z,19.74
2017-09-03T19:22:16.249Z,19.68
2017-09-03T19:24:44.982Z,19.62
2017-09-03T19:27:13.373Z,19.66
2017-09-03T19:29:42.114Z,19.46
2017-09-03T19:32:10.481Z,19.56
2017-09-03T19:34:38.874Z,19.49
2017-09-03T19:37:08.784Z,19.51
2017-09-03T19:39:37.341Z,19.36
2017-09-03T19:42:06.409Z,19.25
2017-09-03T19:44:35.513Z,19.15
2017-09-03T19:47:05.723Z,19.22
2017-09-03T19:49:34.736Z,19.12
2017-09-03T19:52:03.572Z,18.83
2017-09-03T19:54:33.239Z,19.11
2017-09-03T19:57:01.711Z,18.94
2017-09-03T19:59:30.676Z,18.89
2017-09-03T20:01:59.411Z,18.81
2017-09-03T20:04:27.844Z,18.87
2017-09-03T20:06:56.530Z,18.52
2017-09-03T20:09:24.994Z,18.66
2017-09-03T20:11:53.403Z,18.60
2017-09-03T20:14:22.272Z,18.56
2017-09-03T20:16:50.625Z,18.39
2017-09-03T20:19:19.512Z,18.20
2017-09-03T20:21:49.160Z,18.20
2017-09-03T20:24:17.515Z,18.20
2017-09-03T20:26:45.893Z,18.30
2017-09-03T20:29:14.539Z,18.17
2017-09-03T20:31:42.928Z,17.96
2017-09-03T20:34:11.301Z,17.74
2017-09-03T20:36:39.916Z,17.84
2017-09-03T20:39:08.277Z,18.00
2017-09-03T20:41:37.808Z,17.80
2017-09-03T20:44:06.795Z,17.79
2017-09-03T20:46:35.977Z,17.64
2017-09-03T20:49:04.401Z,17.76
2017-09-03T20:51:33.391Z,17.59
2017-09-03T20:54:01.892Z,17.65
2017-09-03T20:56:30.253Z,17.46
2017-09-03T20:58:59.774Z,17.32
2017-09-03T21:01:28.132Z,17.44
2017-09-03T21:03:56.559Z,17.41
2017-09-03T21:06:25.528Z,17.24
2017-09-03T21:08:54.280Z,17.24
2017-09-03T21:11:22.667Z,17.46
2017-09-03T21:13:51.461Z,17.43
2017-09-03T21:16:19.905Z,17.40
2017-09-03T21:18:49.171Z,17.32
2017-09-03T21:21:17.941Z,17.23
2017-09-03T21:23:46.467Z,17.22
2017-09-03T21:26:15.424Z,17.11
2017-09-03T21:28:45.097Z,17.00
2017-09-03T21:31:13.637Z,16.94
2017-09-03T21:33:42.200Z,16.91
2017-09-03T21:36:11.108Z,16.90
2017-09-03T21:38:39.505Z,16.80
2017-09-03T21:41:08.961Z,16.57
2017-09-03T21:43:37.641Z,16.50
2017-09-03T21:46:06.129Z,16.37
2017-09-03T21:48:34.575Z,16.12
2017-09-03T21:51:04.115Z,16.20
2017-09-03T21:53:32.711Z,16.23
2017-09-03T21:56:01.106Z,16.42
2017-09-03T21:58:29.929Z,16.16
2017-09-03T22:00:58.320Z,16.17
2017-09-03T22:03:27.489Z,16.12
2017-09-03T22:05:56.885Z,16.18
2017-09-03T22:08:25.258Z,16.21
2017-09-03T22:10:53.644Z,16.28
2017-09-03T22:13:22.701Z,16.07
2017-09-03T22:15:51.077Z,16.17
2017-09-03T22:18:19.430Z,16.08
2017-09-03T22:20:48.367Z,16.06
2017-09-03T22:23:17.122Z,15.84
2017-09-03T22:25:46.172Z,15.76
2017-09-03T22:28:14.843Z,15.83
2017-09-03T22:30:43.214Z,15.75
2017-09-03T22:33:12.408Z,15.92
2017-09-03T22:35:41.202Z,15.90
2017-09-03T22:38:10.463Z,15.75
2017-09-03T22:40:39.567Z,15.68
2017-09-03T22:43:09.163Z,15.70
2017-09-03T22:45:38.228Z,15.61
2017-09-03T22:48:06.621Z,15.71
2017-09-03T22:50:35.248Z,15.89
2017-09-03T22:53:03.882Z,15.59
2017-09-03T22:55:32.261Z,15.79
2017-09-03T22:58:01.185Z,15.82
2017-09-03T23:00:29.578Z,15.73
2017-09-03T23:02:57.928Z,15.74
2017-09-03T23:05:27.680Z,15.78
2017-09-03T23:07:56.962Z,15.85
2017-09-03T23:10:25.320Z,15.78
2017-09-03T23:12:54.057Z,15.75
2017-09-03T23:15:22.457Z,15.83
2017-09-03T23:17:51.237Z,15.92
2017-09-03T23:20:19.933Z,15.73
2017-09-03T23:22:48.270Z,15.76
2017-09-03T23:25:17.459Z,15.80
2017-09-03T23:27:46.445Z,15.80
2017-09-03T23:30:14.830Z,15.74
2017-09-03T23:32:43.214Z,15.50
2017-09-03T23:35:12.549Z,15.42
2017-09-03T23:37:41.151Z,15.34
2017-09-03T23:40:09.739Z,15.30
2017-09-03T23:42:38.665Z,15.28
2017-09-03T23:45:07.772Z,15.26
2017-09-03T23:47:37.180Z,15.08
2017-09-03T23:50:06.062Z,15.01
2017-09-03T23:52:35.098Z,15.16
2017-09-03T23:55:03.672Z,15.30
2017-09-03T23:57:32.561Z,15.13
